sensor_id;sensor_type;location;lat;lon;timestamp;P1;durP1;ratioP1;P2;durP2;ratioP2
27161;SDS011;54464;50.558;9.704;2023-01-04T00:01:01;5.80;;;1.77;;
27161;SDS011;54464;50.558;9.704;2023-01-04T00:03:31;3.67;;;2.40;;
27161;SDS011;54464;50.558;9.704;2023-01-04T00:05:58;5.03;;;2.40;;
27161;SDS011;54464;50.558;9.704;2023-01-04T00:08:25;3.83;;;2.20;;
27161;SDS011;54464;50.558;9.704;2023-01-04T00:10:51;6.10;;;2.30;;
27161;SDS011;54464;50.558;9.704;2023-01-04T00:13:16;5.20;;;2.33;;
27161;SDS011;54464;50.558;9.704;2023-01-04T00:15:42;4.83;;;2.30;;
27161;SDS011;54464;50.558;9.704;2023-01-04T00:18:08;7.07;;;2.80;;
27161;SDS011;54464;50.558;9.704;2023-01-04T00:20:34;2.00;;;1.73;;
27161;SDS011;54464;50.558;9.704;2023-01-04T00:22:59;7.13;;;2.63;;
27161;SDS011;54464;50.558;9.704;2023-01-04T00:25:25;3.77;;;2.20;;
27161;SDS011;54464;50.558;9.704;2023-01-04T00:27:51;2.60;;;1.73;;
27161;SDS011;54464;50.558;9.704;2023-01-04T00:30:17;2.53;;;1.67;;
27161;SDS011;54464;50.558;9.704;2023-01-04T00:32:43;4.23;;;2.03;;
27161;SDS011;54464;50.558;9.704;2023-01-04T00:35:09;4.30;;;2.47;;
27161;SDS011;54464;50.558;9.704;2023-01-04T00:37:35;2.83;;;1.63;;
27161;SDS011;54464;50.558;9.704;2023-01-04T00:40:01;3.47;;;1.83;;
27161;SDS011;54464;50.558;9.704;2023-01-04T00:42:27;3.50;;;1.50;;
27161;SDS011;54464;50.558;9.704;2023-01-04T00:44:53;2.53;;;1.80;;
27161;SDS011;54464;50.558;9.704;2023-01-04T00:50:12;5.30;;;1.60;;
27161;SDS011;54464;50.558;9.704;2023-01-04T00:52:38;3.93;;;1.87;;
27161;SDS011;54464;50.558;9.704;2023-01-04T00:55:03;5.77;;;1.80;;
27161;SDS011;54464;50.558;9.704;2023-01-04T00:57:29;2.43;;;1.87;;
27161;SDS011;54464;50.558;9.704;2023-01-04T00:59:55;4.80;;;1.80;;
27161;SDS011;54464;50.558;9.704;2023-01-04T01:02:21;5.50;;;2.50;;
27161;SDS011;54464;50.558;9.704;2023-01-04T01:04:46;4.63;;;2.27;;
27161;SDS011;54464;50.558;9.704;2023-01-04T01:07:12;3.53;;;2.10;;
27161;SDS011;54464;50.558;9.704;2023-01-04T01:09:38;2.80;;;2.00;;
27161;SDS011;54464;50.558;9.704;2023-01-04T01:12:03;5.40;;;1.90;;
27161;SDS011;54464;50.558;9.704;2023-01-04T01:14:29;3.63;;;2.10;;
27161;SDS011;54464;50.558;9.704;2023-01-04T01:16:55;4.00;;;2.47;;
27161;SDS011;54464;50.558;9.704;2023-01-04T01:19:20;6.90;;;2.50;;
27161;SDS011;54464;50.558;9.704;2023-01-04T01:21:46;4.10;;;2.07;;
27161;SDS011;54464;50.558;9.704;2023-01-04T01:24:16;3.30;;;1.73;;
27161;SDS011;54464;50.558;9.704;2023-01-04T01:26:43;3.67;;;2.40;;
27161;SDS011;54464;50.558;9.704;2023-01-04T01:29:08;2.77;;;2.10;;
27161;SDS011;54464;50.558;9.704;2023-01-04T01:31:34;3.93;;;2.00;;
27161;SDS011;54464;50.558;9.704;2023-01-04T01:34:00;4.47;;;2.33;;
27161;SDS011;54464;50.558;9.704;2023-01-04T01:36:26;3.47;;;1.87;;
27161;SDS011;54464;50.558;9.704;2023-01-04T01:38:52;4.70;;;2.20;;
27161;SDS011;54464;50.558;9.704;2023-01-04T01:41:19;4.13;;;2.00;;
27161;SDS011;54464;50.558;9.704;2023-01-04T01:46:47;3.83;;;2.20;;
27161;SDS011;54464;50.558;9.704;2023-01-04T01:51:48;2.77;;;2.27;;
27161;SDS011;54464;50.558;9.704;2023-01-04T01:54:16;4.90;;;2.40;;
27161;SDS011;54464;50.558;9.704;2023-01-04T01:56:46;3.07;;;1.73;;
27161;SDS011;54464;50.558;9.704;2023-01-04T01:59:14;6.00;;;2.17;;
27161;SDS011;54464;50.558;9.704;2023-01-04T02:01:42;6.60;;;2.07;;
27161;SDS011;54464;50.558;9.704;2023-01-04T02:04:08;3.63;;;1.93;;
27161;SDS011;54464;50.558;9.704;2023-01-04T02:06:37;4.80;;;2.00;;
27161;SDS011;54464;50.558;9.704;2023-01-04T02:09:05;4.20;;;1.70;;
27161;SDS011;54464;50.558;9.704;2023-01-04T02:11:31;2.50;;;1.40;;
27161;SDS011;54464;50.558;9.704;2023-01-04T02:13:57;3.63;;;1.63;;
27161;SDS011;54464;50.558;9.704;2023-01-04T02:27:28;2.70;;;1.30;;
27161;SDS011;54464;50.558;9.704;2023-01-04T02:33:07;2.57;;;1.07;;
27161;SDS011;54464;50.558;9.704;2023-01-04T02:35:46;2.90;;;1.20;;
27161;SDS011;54464;50.558;9.704;2023-01-04T02:41:32;2.17;;;1.20;;
27161;SDS011;54464;50.558;9.704;2023-01-04T02:44:20;1.93;;;1.10;;
27161;SDS011;54464;50.558;9.704;2023-01-04T02:47:12;1.63;;;1.43;;
27161;SDS011;54464;50.558;9.704;2023-01-04T02:49:40;3.30;;;1.20;;
27161;SDS011;54464;50.558;9.704;2023-01-04T02:52:24;4.80;;;1.23;;
27161;SDS011;54464;50.558;9.704;2023-01-04T02:54:51;1.13;;;1.00;;
27161;SDS011;54464;50.558;9.704;2023-01-04T02:57:21;1.20;;;0.97;;
27161;SDS011;54464;50.558;9.704;2023-01-04T03:08:42;1.30;;;1.07;;
27161;SDS011;54464;50.558;9.704;2023-01-04T03:11:20;1.80;;;1.13;;
27161;SDS011;54464;50.558;9.704;2023-01-04T03:14:10;1.30;;;1.10;;
27161;SDS011;54464;50.558;9.704;2023-01-04T03:16:44;1.63;;;1.00;;
27161;SDS011;54464;50.558;9.704;2023-01-04T03:19:11;1.83;;;0.90;;
27161;SDS011;54464;50.558;9.704;2023-01-04T03:21:59;2.57;;;1.30;;
27161;SDS011;54464;50.558;9.704;2023-01-04T03:24:26;1.03;;;0.87;;
27161;SDS011;54464;50.558;9.704;2023-01-04T03:27:11;2.80;;;1.27;;
27161;SDS011;54464;50.558;9.704;2023-01-04T03:29:57;1.60;;;1.17;;
27161;SDS011;54464;50.558;9.704;2023-01-04T03:32:49;3.03;;;1.13;;
27161;SDS011;54464;50.558;9.704;2023-01-04T03:35:42;2.17;;;1.07;;
27161;SDS011;54464;50.558;9.704;2023-01-04T03:38:16;1.83;;;1.10;;
27161;SDS011;54464;50.558;9.704;2023-01-04T03:41:25;3.73;;;1.73;;
27161;SDS011;54464;50.558;9.704;2023-01-04T03:44:33;3.63;;;1.60;;
27161;SDS011;54464;50.558;9.704;2023-01-04T03:47:19;3.10;;;1.80;;
27161;SDS011;54464;50.558;9.704;2023-01-04T03:50:12;3.40;;;1.70;;
27161;SDS011;54464;50.558;9.704;2023-01-04T03:52:52;5.37;;;3.23;;
27161;SDS011;54464;50.558;9.704;2023-01-04T03:55:20;2.13;;;1.70;;
27161;SDS011;54464;50.558;9.704;2023-01-04T03:57:48;2.17;;;1.70;;
27161;SDS011;54464;50.558;9.704;2023-01-04T04:00:15;3.00;;;2.07;;
27161;SDS011;54464;50.558;9.704;2023-01-04T04:02:44;1.40;;;1.30;;
27161;SDS011;54464;50.558;9.704;2023-01-04T04:05:14;3.37;;;2.10;;
27161;SDS011;54464;50.558;9.704;2023-01-04T04:08:02;4.80;;;2.10;;
27161;SDS011;54464;50.558;9.704;2023-01-04T04:10:46;2.70;;;2.00;;
27161;SDS011;54464;50.558;9.704;2023-01-04T04:13:12;4.43;;;2.43;;
27161;SDS011;54464;50.558;9.704;2023-01-04T04:15:38;3.33;;;2.17;;
27161;SDS011;54464;50.558;9.704;2023-01-04T04:18:04;3.50;;;2.60;;
27161;SDS011;54464;50.558;9.704;2023-01-04T04:20:30;1.87;;;1.73;;
27161;SDS011;54464;50.558;9.704;2023-01-04T04:22:56;4.40;;;2.33;;
27161;SDS011;54464;50.558;9.704;2023-01-04T04:25:21;5.63;;;2.47;;
27161;SDS011;54464;50.558;9.704;2023-01-04T04:27:47;4.27;;;2.70;;
27161;SDS011;54464;50.558;9.704;2023-01-04T04:30:13;4.17;;;2.73;;
27161;SDS011;54464;50.558;9.704;2023-01-04T04:32:38;3.27;;;2.33;;
27161;SDS011;54464;50.558;9.704;2023-01-04T04:35:04;4.10;;;1.77;;
27161;SDS011;54464;50.558;9.704;2023-01-04T04:37:30;5.27;;;2.67;;
27161;SDS011;54464;50.558;9.704;2023-01-04T04:39:57;4.30;;;2.47;;
27161;SDS011;54464;50.558;9.704;2023-01-04T04:42:22;4.10;;;2.67;;
27161;SDS011;54464;50.558;9.704;2023-01-04T04:44:48;2.37;;;1.87;;
27161;SDS011;54464;50.558;9.704;2023-01-04T04:47:14;5.47;;;2.93;;
27161;SDS011;54464;50.558;9.704;2023-01-04T04:49:40;2.17;;;1.97;;
27161;SDS011;54464;50.558;9.704;2023-01-04T04:52:05;3.63;;;2.40;;
27161;SDS011;54464;50.558;9.704;2023-01-04T04:54:31;2.97;;;2.30;;
27161;SDS011;54464;50.558;9.704;2023-01-04T04:56:57;4.00;;;2.50;;
27161;SDS011;54464;50.558;9.704;2023-01-04T04:59:22;4.10;;;2.70;;
27161;SDS011;54464;50.558;9.704;2023-01-04T05:01:48;2.97;;;2.00;;
27161;SDS011;54464;50.558;9.704;2023-01-04T05:04:14;2.57;;;2.13;;
27161;SDS011;54464;50.558;9.704;2023-01-04T05:06:47;4.93;;;2.60;;
27161;SDS011;54464;50.558;9.704;2023-01-04T05:09:13;4.57;;;2.90;;
27161;SDS011;54464;50.558;9.704;2023-01-04T05:11:40;3.47;;;2.00;;
27161;SDS011;54464;50.558;9.704;2023-01-04T05:14:25;5.23;;;2.80;;
27161;SDS011;54464;50.558;9.704;2023-01-04T05:16:51;4.17;;;2.77;;
27161;SDS011;54464;50.558;9.704;2023-01-04T05:19:16;5.07;;;2.80;;
27161;SDS011;54464;50.558;9.704;2023-01-04T05:21:42;6.23;;;2.90;;
27161;SDS011;54464;50.558;9.704;2023-01-04T05:24:09;4.27;;;2.70;;
27161;SDS011;54464;50.558;9.704;2023-01-04T05:26:36;3.60;;;2.13;;
27161;SDS011;54464;50.558;9.704;2023-01-04T05:29:01;4.57;;;1.97;;
27161;SDS011;54464;50.558;9.704;2023-01-04T05:31:27;6.23;;;3.30;;
27161;SDS011;54464;50.558;9.704;2023-01-04T05:33:53;2.10;;;1.90;;
27161;SDS011;54464;50.558;9.704;2023-01-04T05:36:19;5.77;;;2.73;;
27161;SDS011;54464;50.558;9.704;2023-01-04T05:38:44;6.17;;;3.00;;
27161;SDS011;54464;50.558;9.704;2023-01-04T05:41:10;4.60;;;2.70;;
27161;SDS011;54464;50.558;9.704;2023-01-04T05:43:54;8.87;;;4.07;;
27161;SDS011;54464;50.558;9.704;2023-01-04T05:46:20;4.63;;;2.37;;
27161;SDS011;54464;50.558;9.704;2023-01-04T05:48:46;2.63;;;2.27;;
27161;SDS011;54464;50.558;9.704;2023-01-04T05:51:12;4.67;;;2.73;;
27161;SDS011;54464;50.558;9.704;2023-01-04T05:53:38;2.50;;;1.97;;
27161;SDS011;54464;50.558;9.704;2023-01-04T05:56:03;4.83;;;3.27;;
27161;SDS011;54464;50.558;9.704;2023-01-04T05:58:29;3.37;;;2.10;;
27161;SDS011;54464;50.558;9.704;2023-01-04T06:00:55;2.00;;;1.80;;
27161;SDS011;54464;50.558;9.704;2023-01-04T06:03:21;4.47;;;2.50;;
27161;SDS011;54464;50.558;9.704;2023-01-04T06:05:50;2.30;;;2.03;;
27161;SDS011;54464;50.558;9.704;2023-01-04T06:08:16;3.60;;;2.73;;
27161;SDS011;54464;50.558;9.704;2023-01-04T06:10:50;4.17;;;1.87;;
27161;SDS011;54464;50.558;9.704;2023-01-04T06:13:18;3.33;;;1.97;;
27161;SDS011;54464;50.558;9.704;2023-01-04T06:15:44;1.80;;;1.70;;
27161;SDS011;54464;50.558;9.704;2023-01-04T06:18:10;4.07;;;2.47;;
27161;SDS011;54464;50.558;9.704;2023-01-04T06:20:36;3.13;;;2.50;;
27161;SDS011;54464;50.558;9.704;2023-01-04T06:23:01;2.47;;;1.97;;
27161;SDS011;54464;50.558;9.704;2023-01-04T06:25:27;4.83;;;2.87;;
27161;SDS011;54464;50.558;9.704;2023-01-04T06:27:53;4.43;;;2.37;;
27161;SDS011;54464;50.558;9.704;2023-01-04T06:30:18;2.17;;;1.97;;
27161;SDS011;54464;50.558;9.704;2023-01-04T06:32:44;3.40;;;2.20;;
27161;SDS011;54464;50.558;9.704;2023-01-04T06:35:10;2.37;;;1.97;;
27161;SDS011;54464;50.558;9.704;2023-01-04T06:37:36;6.97;;;3.23;;
27161;SDS011;54464;50.558;9.704;2023-01-04T06:40:02;5.47;;;3.13;;
27161;SDS011;54464;50.558;9.704;2023-01-04T06:42:28;6.40;;;2.43;;
27161;SDS011;54464;50.558;9.704;2023-01-04T06:45:12;2.07;;;1.63;;
27161;SDS011;54464;50.558;9.704;2023-01-04T06:47:39;5.90;;;2.63;;
27161;SDS011;54464;50.558;9.704;2023-01-04T06:50:05;3.00;;;2.67;;
27161;SDS011;54464;50.558;9.704;2023-01-04T06:52:31;4.10;;;2.77;;
27161;SDS011;54464;50.558;9.704;2023-01-04T06:54:57;5.63;;;2.77;;
27161;SDS011;54464;50.558;9.704;2023-01-04T06:57:22;6.00;;;2.17;;
27161;SDS011;54464;50.558;9.704;2023-01-04T06:59:48;5.30;;;2.93;;
27161;SDS011;54464;50.558;9.704;2023-01-04T07:02:14;3.10;;;2.17;;
27161;SDS011;54464;50.558;9.704;2023-01-04T07:04:40;4.30;;;2.30;;
27161;SDS011;54464;50.558;9.704;2023-01-04T07:07:07;2.70;;;1.90;;
27161;SDS011;54464;50.558;9.704;2023-01-04T07:09:33;2.70;;;2.40;;
27161;SDS011;54464;50.558;9.704;2023-01-04T07:12:00;3.93;;;2.97;;
27161;SDS011;54464;50.558;9.704;2023-01-04T07:14:26;5.40;;;1.83;;
27161;SDS011;54464;50.558;9.704;2023-01-04T07:16:51;4.97;;;2.87;;
27161;SDS011;54464;50.558;9.704;2023-01-04T07:19:17;5.20;;;2.60;;
27161;SDS011;54464;50.558;9.704;2023-01-04T07:21:43;3.93;;;1.90;;
27161;SDS011;54464;50.558;9.704;2023-01-04T07:24:08;3.63;;;2.00;;
27161;SDS011;54464;50.558;9.704;2023-01-04T07:26:34;3.10;;;2.60;;
27161;SDS011;54464;50.558;9.704;2023-01-04T07:29:00;4.00;;;2.73;;
27161;SDS011;54464;50.558;9.704;2023-01-04T07:31:38;3.20;;;2.07;;
27161;SDS011;54464;50.558;9.704;2023-01-04T07:34:04;5.37;;;3.03;;
27161;SDS011;54464;50.558;9.704;2023-01-04T07:36:30;4.50;;;2.37;;
27161;SDS011;54464;50.558;9.704;2023-01-04T07:38:57;3.60;;;2.77;;
27161;SDS011;54464;50.558;9.704;2023-01-04T07:41:24;5.87;;;3.40;;
27161;SDS011;54464;50.558;9.704;2023-01-04T07:43:50;4.57;;;3.20;;
27161;SDS011;54464;50.558;9.704;2023-01-04T07:46:16;3.67;;;2.90;;
27161;SDS011;54464;50.558;9.704;2023-01-04T07:48:41;3.80;;;2.63;;
27161;SDS011;54464;50.558;9.704;2023-01-04T07:51:07;2.93;;;1.87;;
27161;SDS011;54464;50.558;9.704;2023-01-04T07:53:33;4.80;;;3.03;;
27161;SDS011;54464;50.558;9.704;2023-01-04T07:55:58;6.57;;;2.97;;
27161;SDS011;54464;50.558;9.704;2023-01-04T07:58:25;3.63;;;2.40;;
27161;SDS011;54464;50.558;9.704;2023-01-04T08:00:55;5.33;;;2.30;;
27161;SDS011;54464;50.558;9.704;2023-01-04T08:03:21;4.50;;;3.10;;
27161;SDS011;54464;50.558;9.704;2023-01-04T08:05:47;3.80;;;3.10;;
27161;SDS011;54464;50.558;9.704;2023-01-04T08:08:13;5.10;;;2.33;;
27161;SDS011;54464;50.558;9.704;2023-01-04T08:10:38;3.73;;;2.43;;
27161;SDS011;54464;50.558;9.704;2023-01-04T08:13:04;7.93;;;3.23;;
27161;SDS011;54464;50.558;9.704;2023-01-04T08:15:30;6.43;;;3.33;;
27161;SDS011;54464;50.558;9.704;2023-01-04T08:17:55;3.87;;;3.03;;
27161;SDS011;54464;50.558;9.704;2023-01-04T08:20:21;6.03;;;4.00;;
27161;SDS011;54464;50.558;9.704;2023-01-04T08:22:47;4.00;;;2.67;;
27161;SDS011;54464;50.558;9.704;2023-01-04T08:25:13;5.27;;;3.93;;
27161;SDS011;54464;50.558;9.704;2023-01-04T08:27:38;3.50;;;2.83;;
27161;SDS011;54464;50.558;9.704;2023-01-04T08:30:06;4.97;;;3.37;;
27161;SDS011;54464;50.558;9.704;2023-01-04T08:32:32;3.27;;;2.73;;
27161;SDS011;54464;50.558;9.704;2023-01-04T08:34:58;5.40;;;3.20;;
27161;SDS011;54464;50.558;9.704;2023-01-04T08:37:24;7.73;;;4.53;;
27161;SDS011;54464;50.558;9.704;2023-01-04T08:39:49;5.97;;;3.33;;
27161;SDS011;54464;50.558;9.704;2023-01-04T08:42:15;5.53;;;4.47;;
27161;SDS011;54464;50.558;9.704;2023-01-04T08:44:41;6.83;;;4.80;;
27161;SDS011;54464;50.558;9.704;2023-01-04T08:47:07;3.77;;;3.07;;
27161;SDS011;54464;50.558;9.704;2023-01-04T08:49:33;4.97;;;3.73;;
27161;SDS011;54464;50.558;9.704;2023-01-04T08:51:58;4.97;;;3.17;;
27161;SDS011;54464;50.558;9.704;2023-01-04T08:54:24;6.80;;;3.30;;
27161;SDS011;54464;50.558;9.704;2023-01-04T08:56:50;5.87;;;3.90;;
27161;SDS011;54464;50.558;9.704;2023-01-04T08:59:15;5.90;;;4.03;;
27161;SDS011;54464;50.558;9.704;2023-01-04T09:01:41;7.07;;;4.63;;
27161;SDS011;54464;50.558;9.704;2023-01-04T09:04:07;4.80;;;3.90;;
27161;SDS011;54464;50.558;9.704;2023-01-04T09:06:33;5.00;;;3.10;;
27161;SDS011;54464;50.558;9.704;2023-01-04T09:09:00;5.00;;;2.77;;
27161;SDS011;54464;50.558;9.704;2023-01-04T09:11:26;7.40;;;2.90;;
27161;SDS011;54464;50.558;9.704;2023-01-04T09:13:55;4.17;;;2.80;;
27161;SDS011;54464;50.558;9.704;2023-01-04T09:16:22;4.47;;;3.83;;
27161;SDS011;54464;50.558;9.704;2023-01-04T09:18:48;6.20;;;4.37;;
27161;SDS011;54464;50.558;9.704;2023-01-04T09:21:15;4.90;;;3.20;;
27161;SDS011;54464;50.558;9.704;2023-01-04T09:23:43;5.53;;;3.87;;
27161;SDS011;54464;50.558;9.704;2023-01-04T09:26:12;6.67;;;3.17;;
27161;SDS011;54464;50.558;9.704;2023-01-04T09:28:43;4.90;;;3.10;;
27161;SDS011;54464;50.558;9.704;2023-01-04T09:31:13;7.77;;;4.97;;
27161;SDS011;54464;50.558;9.704;2023-01-04T09:33:40;4.60;;;3.83;;
27161;SDS011;54464;50.558;9.704;2023-01-04T09:36:07;8.83;;;6.47;;
27161;SDS011;54464;50.558;9.704;2023-01-04T09:38:34;10.63;;;7.37;;
27161;SDS011;54464;50.558;9.704;2023-01-04T09:43:38;6.13;;;4.10;;
27161;SDS011;54464;50.558;9.704;2023-01-04T09:46:10;3.97;;;3.40;;
27161;SDS011;54464;50.558;9.704;2023-01-04T09:48:42;4.97;;;3.67;;
27161;SDS011;54464;50.558;9.704;2023-01-04T09:51:16;7.20;;;4.53;;
27161;SDS011;54464;50.558;9.704;2023-01-04T09:53:49;7.57;;;6.23;;
27161;SDS011;54464;50.558;9.704;2023-01-04T09:58:53;5.40;;;2.87;;
27161;SDS011;54464;50.558;9.704;2023-01-04T10:01:20;3.13;;;2.40;;
27161;SDS011;54464;50.558;9.704;2023-01-04T10:04:02;4.70;;;3.20;;
27161;SDS011;54464;50.558;9.704;2023-01-04T10:06:41;3.30;;;2.83;;
27161;SDS011;54464;50.558;9.704;2023-01-04T10:09:11;3.07;;;2.23;;
27161;SDS011;54464;50.558;9.704;2023-01-04T10:33:13;3.27;;;2.60;;
27161;SDS011;54464;50.558;9.704;2023-01-04T10:35:44;2.87;;;2.63;;
27161;SDS011;54464;50.558;9.704;2023-01-04T10:38:14;3.73;;;2.70;;
27161;SDS011;54464;50.558;9.704;2023-01-04T10:40:43;3.60;;;3.00;;
27161;SDS011;54464;50.558;9.704;2023-01-04T10:51:04;4.00;;;2.67;;
27161;SDS011;54464;50.558;9.704;2023-01-04T10:56:24;4.83;;;2.93;;
27161;SDS011;54464;50.558;9.704;2023-01-04T10:59:02;4.10;;;3.30;;
27161;SDS011;54464;50.558;9.704;2023-01-04T11:06:44;3.87;;;2.60;;
27161;SDS011;54464;50.558;9.704;2023-01-04T11:09:15;3.33;;;2.83;;
27161;SDS011;54464;50.558;9.704;2023-01-04T11:11:45;5.00;;;3.10;;
27161;SDS011;54464;50.558;9.704;2023-01-04T11:14:12;3.47;;;2.97;;
27161;SDS011;54464;50.558;9.704;2023-01-04T11:16:39;2.30;;;2.03;;
27161;SDS011;54464;50.558;9.704;2023-01-04T11:19:08;2.37;;;1.93;;
27161;SDS011;54464;50.558;9.704;2023-01-04T11:22:09;3.90;;;2.17;;
27161;SDS011;54464;50.558;9.704;2023-01-04T11:24:39;2.93;;;2.13;;
27161;SDS011;54464;50.558;9.704;2023-01-04T11:27:12;4.00;;;2.10;;
27161;SDS011;54464;50.558;9.704;2023-01-04T11:35:08;4.33;;;3.20;;
27161;SDS011;54464;50.558;9.704;2023-01-04T11:37:35;2.27;;;1.90;;
27161;SDS011;54464;50.558;9.704;2023-01-04T11:42:49;3.00;;;2.70;;
27161;SDS011;54464;50.558;9.704;2023-01-04T11:45:18;3.20;;;2.10;;
27161;SDS011;54464;50.558;9.704;2023-01-04T11:47:50;3.37;;;2.90;;
27161;SDS011;54464;50.558;9.704;2023-01-04T11:58:38;3.30;;;2.70;;
27161;SDS011;54464;50.558;9.704;2023-01-04T12:01:05;2.67;;;2.43;;
27161;SDS011;54464;50.558;9.704;2023-01-04T12:03:44;3.83;;;3.20;;
27161;SDS011;54464;50.558;9.704;2023-01-04T12:06:17;3.70;;;3.30;;
27161;SDS011;54464;50.558;9.704;2023-01-04T12:08:54;3.97;;;3.53;;
27161;SDS011;54464;50.558;9.704;2023-01-04T12:13:52;3.17;;;2.60;;
27161;SDS011;54464;50.558;9.704;2023-01-04T12:16:24;3.30;;;3.00;;
27161;SDS011;54464;50.558;9.704;2023-01-04T12:18:55;5.13;;;4.60;;
27161;SDS011;54464;50.558;9.704;2023-01-04T12:21:24;7.93;;;5.43;;
27161;SDS011;54464;50.558;9.704;2023-01-04T12:23:51;3.33;;;2.90;;
27161;SDS011;54464;50.558;9.704;2023-01-04T12:26:19;2.40;;;2.00;;
27161;SDS011;54464;50.558;9.704;2023-01-04T12:28:46;2.80;;;2.50;;
27161;SDS011;54464;50.558;9.704;2023-01-04T12:33:44;3.20;;;2.90;;
27161;SDS011;54464;50.558;9.704;2023-01-04T12:36:15;5.70;;;3.77;;
27161;SDS011;54464;50.558;9.704;2023-01-04T12:46:58;6.80;;;5.50;;
27161;SDS011;54464;50.558;9.704;2023-01-04T12:49:47;6.03;;;3.23;;
27161;SDS011;54464;50.558;9.704;2023-01-04T12:54:46;4.73;;;3.07;;
27161;SDS011;54464;50.558;9.704;2023-01-04T13:02:24;4.10;;;3.20;;
27161;SDS011;54464;50.558;9.704;2023-01-04T13:04:57;2.80;;;2.53;;
27161;SDS011;54464;50.558;9.704;2023-01-04T13:07:26;4.20;;;3.23;;
27161;SDS011;54464;50.558;9.704;2023-01-04T13:09:56;4.00;;;2.50;;
27161;SDS011;54464;50.558;9.704;2023-01-04T13:23:52;15.17;;;7.97;;
27161;SDS011;54464;50.558;9.704;2023-01-04T13:31:44;7.30;;;5.37;;
27161;SDS011;54464;50.558;9.704;2023-01-04T13:34:31;2.47;;;2.27;;
27161;SDS011;54464;50.558;9.704;2023-01-04T13:39:36;3.83;;;3.20;;
27161;SDS011;54464;50.558;9.704;2023-01-04T13:42:15;2.30;;;2.10;;
27161;SDS011;54464;50.558;9.704;2023-01-04T13:44:55;3.43;;;2.80;;
27161;SDS011;54464;50.558;9.704;2023-01-04T13:47:41;4.13;;;2.93;;
27161;SDS011;54464;50.558;9.704;2023-01-04T13:50:25;4.13;;;3.30;;
27161;SDS011;54464;50.558;9.704;2023-01-04T13:52:59;4.57;;;3.80;;
27161;SDS011;54464;50.558;9.704;2023-01-04T13:55:27;5.80;;;3.50;;
27161;SDS011;54464;50.558;9.704;2023-01-04T13:57:56;4.60;;;3.07;;
27161;SDS011;54464;50.558;9.704;2023-01-04T14:00:22;1.27;;;1.17;;
27161;SDS011;54464;50.558;9.704;2023-01-04T14:03:06;2.77;;;1.50;;
27161;SDS011;54464;50.558;9.704;2023-01-04T14:05:47;3.53;;;3.23;;
27161;SDS011;54464;50.558;9.704;2023-01-04T14:08:19;3.97;;;2.27;;
27161;SDS011;54464;50.558;9.704;2023-01-04T14:10:56;0.97;;;0.97;;
27161;SDS011;54464;50.558;9.704;2023-01-04T14:13:22;1.33;;;1.13;;
27161;SDS011;54464;50.558;9.704;2023-01-04T14:18:49;0.90;;;0.90;;
27161;SDS011;54464;50.558;9.704;2023-01-04T14:21:18;1.80;;;1.50;;
27161;SDS011;54464;50.558;9.704;2023-01-04T14:24:01;1.70;;;1.13;;
27161;SDS011;54464;50.558;9.704;2023-01-04T14:26:33;2.07;;;1.87;;
27161;SDS011;54464;50.558;9.704;2023-01-04T14:29:19;1.53;;;1.43;;
27161;SDS011;54464;50.558;9.704;2023-01-04T14:31:45;1.60;;;1.13;;
27161;SDS011;54464;50.558;9.704;2023-01-04T14:34:13;1.70;;;1.60;;
27161;SDS011;54464;50.558;9.704;2023-01-04T14:36:43;0.83;;;0.83;;
27161;SDS011;54464;50.558;9.704;2023-01-04T14:39:10;4.20;;;1.70;;
27161;SDS011;54464;50.558;9.704;2023-01-04T14:44:15;1.30;;;1.20;;
27161;SDS011;54464;50.558;9.704;2023-01-04T14:46:47;1.60;;;1.50;;
27161;SDS011;54464;50.558;9.704;2023-01-04T14:49:14;1.57;;;1.27;;
27161;SDS011;54464;50.558;9.704;2023-01-04T14:54:10;3.30;;;3.00;;
27161;SDS011;54464;50.558;9.704;2023-01-04T14:56:36;2.00;;;1.80;;
27161;SDS011;54464;50.558;9.704;2023-01-04T14:59:03;2.70;;;2.50;;
27161;SDS011;54464;50.558;9.704;2023-01-04T15:01:29;2.73;;;2.40;;
27161;SDS011;54464;50.558;9.704;2023-01-04T15:03:54;2.50;;;2.30;;
27161;SDS011;54464;50.558;9.704;2023-01-04T15:06:20;2.67;;;1.93;;
27161;SDS011;54464;50.558;9.704;2023-01-04T15:08:46;2.40;;;1.80;;
27161;SDS011;54464;50.558;9.704;2023-01-04T15:11:12;2.10;;;1.67;;
27161;SDS011;54464;50.558;9.704;2023-01-04T15:13:39;1.50;;;1.30;;
27161;SDS011;54464;50.558;9.704;2023-01-04T15:16:06;2.50;;;2.30;;
27161;SDS011;54464;50.558;9.704;2023-01-04T15:18:34;2.20;;;1.77;;
27161;SDS011;54464;50.558;9.704;2023-01-04T15:21:01;2.20;;;1.77;;
27161;SDS011;54464;50.558;9.704;2023-01-04T15:23:27;2.63;;;2.43;;
27161;SDS011;54464;50.558;9.704;2023-01-04T15:25:53;3.43;;;2.63;;
27161;SDS011;54464;50.558;9.704;2023-01-04T15:28:18;2.17;;;2.07;;
27161;SDS011;54464;50.558;9.704;2023-01-04T15:30:45;1.80;;;1.70;;
27161;SDS011;54464;50.558;9.704;2023-01-04T15:33:11;1.90;;;1.60;;
27161;SDS011;54464;50.558;9.704;2023-01-04T15:35:37;2.33;;;1.77;;
27161;SDS011;54464;50.558;9.704;2023-01-04T15:38:03;2.30;;;2.10;;
27161;SDS011;54464;50.558;9.704;2023-01-04T15:40:28;1.87;;;1.57;;
27161;SDS011;54464;50.558;9.704;2023-01-04T15:42:54;4.87;;;3.13;;
27161;SDS011;54464;50.558;9.704;2023-01-04T15:45:23;2.37;;;1.60;;
27161;SDS011;54464;50.558;9.704;2023-01-04T15:47:49;2.17;;;1.90;;
27161;SDS011;54464;50.558;9.704;2023-01-04T15:50:16;1.83;;;1.70;;
27161;SDS011;54464;50.558;9.704;2023-01-04T15:52:42;2.60;;;2.00;;
27161;SDS011;54464;50.558;9.704;2023-01-04T15:55:08;2.67;;;2.47;;
27161;SDS011;54464;50.558;9.704;2023-01-04T15:57:34;2.63;;;2.43;;
27161;SDS011;54464;50.558;9.704;2023-01-04T15:59:59;1.87;;;1.23;;
27161;SDS011;54464;50.558;9.704;2023-01-04T16:02:25;3.70;;;2.50;;
27161;SDS011;54464;50.558;9.704;2023-01-04T16:04:50;2.60;;;2.40;;
27161;SDS011;54464;50.558;9.704;2023-01-04T16:07:16;2.30;;;2.10;;
27161;SDS011;54464;50.558;9.704;2023-01-04T16:09:42;4.07;;;1.97;;
27161;SDS011;54464;50.558;9.704;2023-01-04T16:12:08;2.20;;;2.00;;
27161;SDS011;54464;50.558;9.704;2023-01-04T16:14:52;2.67;;;2.47;;
27161;SDS011;54464;50.558;9.704;2023-01-04T16:17:18;3.03;;;2.73;;
27161;SDS011;54464;50.558;9.704;2023-01-04T16:19:43;2.77;;;2.10;;
27161;SDS011;54464;50.558;9.704;2023-01-04T16:22:09;2.03;;;1.93;;
27161;SDS011;54464;50.558;9.704;2023-01-04T16:24:35;3.70;;;2.87;;
27161;SDS011;54464;50.558;9.704;2023-01-04T16:27:01;2.30;;;2.10;;
27161;SDS011;54464;50.558;9.704;2023-01-04T16:29:26;2.67;;;2.47;;
27161;SDS011;54464;50.558;9.704;2023-01-04T16:31:52;2.50;;;1.90;;
27161;SDS011;54464;50.558;9.704;2023-01-04T16:34:18;3.50;;;3.20;;
27161;SDS011;54464;50.558;9.704;2023-01-04T16:36:43;2.57;;;2.37;;
27161;SDS011;54464;50.558;9.704;2023-01-04T16:39:09;2.50;;;2.30;;
27161;SDS011;54464;50.558;9.704;2023-01-04T16:41:35;2.47;;;2.07;;
27161;SDS011;54464;50.558;9.704;2023-01-04T16:44:02;1.93;;;1.70;;
27161;SDS011;54464;50.558;9.704;2023-01-04T16:46:33;2.03;;;1.90;;
27161;SDS011;54464;50.558;9.704;2023-01-04T16:49:01;2.00;;;1.60;;
27161;SDS011;54464;50.558;9.704;2023-01-04T16:51:32;2.43;;;2.23;;
27161;SDS011;54464;50.558;9.704;2023-01-04T16:54:00;2.03;;;1.90;;
27161;SDS011;54464;50.558;9.704;2023-01-04T16:56:30;2.83;;;2.57;;
27161;SDS011;54464;50.558;9.704;2023-01-04T16:58:56;2.77;;;2.13;;
27161;SDS011;54464;50.558;9.704;2023-01-04T17:01:23;2.30;;;2.10;;
27161;SDS011;54464;50.558;9.704;2023-01-04T17:03:55;2.40;;;2.20;;
27161;SDS011;54464;50.558;9.704;2023-01-04T17:06:23;2.13;;;1.93;;
27161;SDS011;54464;50.558;9.704;2023-01-04T17:08:51;2.63;;;2.43;;
27161;SDS011;54464;50.558;9.704;2023-01-04T17:11:19;2.50;;;2.30;;
27161;SDS011;54464;50.558;9.704;2023-01-04T17:13:45;2.70;;;2.50;;
27161;SDS011;54464;50.558;9.704;2023-01-04T17:16:11;4.57;;;4.17;;
27161;SDS011;54464;50.558;9.704;2023-01-04T17:18:38;4.00;;;3.17;;
27161;SDS011;54464;50.558;9.704;2023-01-04T17:21:05;2.30;;;2.10;;